sensor_id;sensor_type;location;lat;lon;timestamp;pressure;altitude;pressure_sealevel;temperature
17716;BMP280;50159;49.426;11.182;2024-01-10T00:01:56;98541.78;;;-3.51
17716;BMP280;50159;49.426;11.182;2024-01-10T00:04:23;98536.72;;;-3.52
17716;BMP280;50159;49.426;11.182;2024-01-10T00:06:50;98539.25;;;-3.52
17716;BMP280;50159;49.426;11.182;2024-01-10T00:09:17;98536.72;;;-3.52
17716;BMP280;50159;49.426;11.182;2024-01-10T00:11:44;98532.47;;;-3.50
17716;BMP280;50159;49.426;11.182;2024-01-10T00:14:10;98538.41;;;-3.51
17716;BMP280;50159;49.426;11.182;2024-01-10T00:16:37;98537.56;;;-3.53
17716;BMP280;50159;49.426;11.182;2024-01-10T00:19:04;98534.19;;;-3.52
17716;BMP280;50159;49.426;11.182;2024-01-10T00:21:31;98535.91;;;-3.54
17716;BMP280;50159;49.426;11.182;2024-01-10T00:23:57;98535.91;;;-3.54
17716;BMP280;50159;49.426;11.182;2024-01-10T00:26:24;98535.03;;;-3.53
17716;BMP280;50159;49.426;11.182;2024-01-10T00:28:51;98518.97;;;-3.55
17716;BMP280;50159;49.426;11.182;2024-01-10T00:31:18;98524.03;;;-3.55
17716;BMP280;50159;49.426;11.182;2024-01-10T00:33:45;98517.28;;;-3.56
17716;BMP280;50159;49.426;11.182;2024-01-10T00:36:12;98509.63;;;-3.55
17716;BMP280;50159;49.426;11.182;2024-01-10T00:38:39;98520.63;;;-3.54
17716;BMP280;50159;49.426;11.182;2024-01-10T00:41:06;98517.28;;;-3.56
17716;BMP280;50159;49.426;11.182;2024-01-10T00:43:32;98507.94;;;-3.56
17716;BMP280;50159;49.426;11.182;2024-01-10T00:45:59;98507.94;;;-3.56
17716;BMP280;50159;49.426;11.182;2024-01-10T00:48:26;98507.94;;;-3.54
17716;BMP280;50159;49.426;11.182;2024-01-10T00:50:53;98511.31;;;-3.54
17716;BMP280;50159;49.426;11.182;2024-01-10T00:53:19;98507.06;;;-3.53
17716;BMP280;50159;49.426;11.182;2024-01-10T00:55:46;98510.47;;;-3.54
17716;BMP280;50159;49.426;11.182;2024-01-10T00:58:13;98507.13;;;-3.56
17716;BMP280;50159;49.426;11.182;2024-01-10T01:00:39;98504.56;;;-3.56
17716;BMP280;50159;49.426;11.182;2024-01-10T01:03:06;98513.03;;;-3.56
17716;BMP280;50159;49.426;11.182;2024-01-10T01:05:33;98510.47;;;-3.54
17716;BMP280;50159;49.426;11.182;2024-01-10T01:08:00;98505.38;;;-3.54
17716;BMP280;50159;49.426;11.182;2024-01-10T01:10:27;98509.63;;;-3.55
17716;BMP280;50159;49.426;11.182;2024-01-10T01:12:54;98510.47;;;-3.54
17716;BMP280;50159;49.426;11.182;2024-01-10T01:15:21;98511.28;;;-3.51
17716;BMP280;50159;49.426;11.182;2024-01-10T01:17:48;98516.34;;;-3.51
17716;BMP280;50159;49.426;11.182;2024-01-10T01:20:15;98507.06;;;-3.53
17716;BMP280;50159;49.426;11.182;2024-01-10T01:22:42;98515.53;;;-3.51
17716;BMP280;50159;49.426;11.182;2024-01-10T01:25:08;98513.84;;;-3.52
17716;BMP280;50159;49.426;11.182;2024-01-10T01:27:35;98513.84;;;-3.52
17716;BMP280;50159;49.426;11.182;2024-01-10T01:30:02;98519.81;;;-3.55
17716;BMP280;50159;49.426;11.182;2024-01-10T01:32:30;98518.94;;;-3.54
17716;BMP280;50159;49.426;11.182;2024-01-10T01:34:57;98508.78;;;-3.54
17716;BMP280;50159;49.426;11.182;2024-01-10T01:37:23;98523.16;;;-3.51
17716;BMP280;50159;49.426;11.182;2024-01-10T01:39:50;98513.81;;;-3.49
17716;BMP280;50159;49.426;11.182;2024-01-10T01:42:17;98509.63;;;-3.53
17716;BMP280;50159;49.426;11.182;2024-01-10T01:44:43;98524.00;;;-3.52
17716;BMP280;50159;49.426;11.182;2024-01-10T01:47:10;98514.66;;;-3.49
17716;BMP280;50159;49.426;11.182;2024-01-10T01:49:37;98518.06;;;-3.48
17716;BMP280;50159;49.426;11.182;2024-01-10T01:52:04;98517.22;;;-3.50
17716;BMP280;50159;49.426;11.182;2024-01-10T01:54:32;98530.78;;;-3.51
17716;BMP280;50159;49.426;11.182;2024-01-10T01:56:59;98522.28;;;-3.47
17716;BMP280;50159;49.426;11.182;2024-01-10T01:59:26;98512.97;;;-3.48
17716;BMP280;50159;49.426;11.182;2024-01-10T02:01:54;98514.66;;;-3.47
17716;BMP280;50159;49.426;11.182;2024-01-10T02:04:22;98515.50;;;-3.48
17716;BMP280;50159;49.426;11.182;2024-01-10T02:06:49;98522.28;;;-3.47
17716;BMP280;50159;49.426;11.182;2024-01-10T02:09:16;98519.75;;;-3.49
17716;BMP280;50159;49.426;11.182;2024-01-10T02:11:43;98513.81;;;-3.51
17716;BMP280;50159;49.426;11.182;2024-01-10T02:14:10;98504.50;;;-3.52
17716;BMP280;50159;49.426;11.182;2024-01-10T02:16:37;98509.63;;;-3.53
17716;BMP280;50159;49.426;11.182;2024-01-10T02:19:33;98513.00;;;-3.53
17716;BMP280;50159;49.426;11.182;2024-01-10T02:22:01;98517.25;;;-3.55
17716;BMP280;50159;49.426;11.182;2024-01-10T02:24:29;98520.63;;;-3.54
17716;BMP280;50159;49.426;11.182;2024-01-10T02:26:56;98519.81;;;-3.56
17716;BMP280;50159;49.426;11.182;2024-01-10T02:29:22;98521.53;;;-3.57
17716;BMP280;50159;49.426;11.182;2024-01-10T02:31:50;98511.41;;;-3.59
17716;BMP280;50159;49.426;11.182;2024-01-10T02:34:17;98520.72;;;-3.60
17716;BMP280;50159;49.426;11.182;2024-01-10T02:36:44;98516.50;;;-3.61
17716;BMP280;50159;49.426;11.182;2024-01-10T02:39:10;98508.88;;;-3.64
17716;BMP280;50159;49.426;11.182;2024-01-10T02:41:37;98506.34;;;-3.65
17716;BMP280;50159;49.426;11.182;2024-01-10T02:44:04;98515.69;;;-3.66
17716;BMP280;50159;49.426;11.182;2024-01-10T02:46:31;98514.88;;;-3.68
17716;BMP280;50159;49.426;11.182;2024-01-10T02:48:57;98504.69;;;-3.68
17716;BMP280;50159;49.426;11.182;2024-01-10T02:51:26;98505.56;;;-3.69
17716;BMP280;50159;49.426;11.182;2024-01-10T02:53:53;98505.59;;;-3.70
17716;BMP280;50159;49.426;11.182;2024-01-10T02:56:20;98497.13;;;-3.72
17716;BMP280;50159;49.426;11.182;2024-01-10T02:58:47;98504.78;;;-3.74
17716;BMP280;50159;49.426;11.182;2024-01-10T03:01:14;98504.78;;;-3.77
17716;BMP280;50159;49.426;11.182;2024-01-10T03:03:41;98495.47;;;-3.78
17716;BMP280;50159;49.426;11.182;2024-01-10T03:06:08;98503.13;;;-3.79
17716;BMP280;50159;49.426;11.182;2024-01-10T03:08:35;98500.59;;;-3.80
17716;BMP280;50159;49.426;11.182;2024-01-10T03:11:01;98501.47;;;-3.81
17716;BMP280;50159;49.426;11.182;2024-01-10T03:13:29;98501.47;;;-3.81
17716;BMP280;50159;49.426;11.182;2024-01-10T03:15:56;98503.16;;;-3.82
17716;BMP280;50159;49.426;11.182;2024-01-10T03:18:23;98499.78;;;-3.84
17716;BMP280;50159;49.426;11.182;2024-01-10T03:20:50;98491.34;;;-3.84
17716;BMP280;50159;49.426;11.182;2024-01-10T03:23:17;98500.69;;;-3.86
17716;BMP280;50159;49.426;11.182;2024-01-10T03:25:44;98507.44;;;-3.85
17716;BMP280;50159;49.426;11.182;2024-01-10T03:28:15;98500.69;;;-3.88
17716;BMP280;50159;49.426;11.182;2024-01-10T03:30:42;98501.53;;;-3.87
17716;BMP280;50159;49.426;11.182;2024-01-10T03:33:09;98507.44;;;-3.88
17716;BMP280;50159;49.426;11.182;2024-01-10T03:35:36;98506.63;;;-3.90
17716;BMP280;50159;49.426;11.182;2024-01-10T03:38:02;98504.97;;;-3.93
17716;BMP280;50159;49.426;11.182;2024-01-10T03:40:29;98503.34;;;-4.01
17716;BMP280;50159;49.426;11.182;2024-01-10T03:42:56;98505.09;;;-4.06
17716;BMP280;50159;49.426;11.182;2024-01-10T03:45:23;98509.41;;;-4.15
17716;BMP280;50159;49.426;11.182;2024-01-10T03:47:50;98516.28;;;-4.24
17716;BMP280;50159;49.426;11.182;2024-01-10T03:50:20;98508.69;;;-4.32
17716;BMP280;50159;49.426;11.182;2024-01-10T03:52:47;98507.06;;;-4.39
17716;BMP280;50159;49.426;11.182;2024-01-10T03:55:14;98494.41;;;-4.42
17716;BMP280;50159;49.426;11.182;2024-01-10T03:57:42;98498.69;;;-4.47
17716;BMP280;50159;49.426;11.182;2024-01-10T04:00:09;98507.19;;;-4.55
17716;BMP280;50159;49.426;11.182;2024-01-10T04:02:37;98505.59;;;-4.63
17716;BMP280;50159;49.426;11.182;2024-01-10T04:05:08;98498.88;;;-4.77
17716;BMP280;50159;49.426;11.182;2024-01-10T04:07:40;98504.88;;;-4.87
17716;BMP280;50159;49.426;11.182;2024-01-10T04:10:11;98510.81;;;-4.91
17716;BMP280;50159;49.426;11.182;2024-01-10T04:12:41;98508.31;;;-4.95
17716;BMP280;50159;49.426;11.182;2024-01-10T04:15:08;98511.72;;;-4.98
17716;BMP280;50159;49.426;11.182;2024-01-10T04:17:35;98509.19;;;-5.02
17716;BMP280;50159;49.426;11.182;2024-01-10T04:20:03;98506.66;;;-5.04
17716;BMP280;50159;49.426;11.182;2024-01-10T04:22:31;98509.19;;;-5.05
17716;BMP280;50159;49.426;11.182;2024-01-10T04:24:59;98506.72;;;-5.10
17716;BMP280;50159;49.426;11.182;2024-01-10T04:27:27;98503.34;;;-5.10
17716;BMP280;50159;49.426;11.182;2024-01-10T04:29:54;98502.50;;;-5.11
17716;BMP280;50159;49.426;11.182;2024-01-10T04:32:20;98499.94;;;-5.11
17716;BMP280;50159;49.426;11.182;2024-01-10T04:34:47;98506.72;;;-5.10
17716;BMP280;50159;49.426;11.182;2024-01-10T04:37:14;98496.56;;;-5.11
17716;BMP280;50159;49.426;11.182;2024-01-10T04:39:41;98510.94;;;-5.12
17716;BMP280;50159;49.426;11.182;2024-01-10T04:42:12;98505.88;;;-5.13
17716;BMP280;50159;49.426;11.182;2024-01-10T04:44:39;98502.50;;;-5.15
17716;BMP280;50159;49.426;11.182;2024-01-10T04:47:07;98503.34;;;-5.14
17716;BMP280;50159;49.426;11.182;2024-01-10T04:49:34;98499.09;;;-5.14
17716;BMP280;50159;49.426;11.182;2024-01-10T04:52:02;98495.72;;;-5.16
17716;BMP280;50159;49.426;11.182;2024-01-10T04:54:28;98491.53;;;-5.18
17716;BMP280;50159;49.426;11.182;2024-01-10T04:56:55;98497.47;;;-5.21
17716;BMP280;50159;49.426;11.182;2024-01-10T04:59:22;98500.84;;;-5.20
17716;BMP280;50159;49.426;11.182;2024-01-10T05:01:49;98498.31;;;-5.23
17716;BMP280;50159;49.426;11.182;2024-01-10T05:04:16;98499.16;;;-5.23
17716;BMP280;50159;49.426;11.182;2024-01-10T05:06:43;98506.78;;;-5.23
17716;BMP280;50159;49.426;11.182;2024-01-10T05:09:11;98500.00;;;-5.22
17716;BMP280;50159;49.426;11.182;2024-01-10T05:11:38;98500.84;;;-5.20
17716;BMP280;50159;49.426;11.182;2024-01-10T05:14:07;98498.31;;;-5.20
17716;BMP280;50159;49.426;11.182;2024-01-10T05:16:34;98500.00;;;-5.22
17716;BMP280;50159;49.426;11.182;2024-01-10T05:19:01;98502.56;;;-5.28
17716;BMP280;50159;49.426;11.182;2024-01-10T05:21:32;98487.41;;;-5.36
17716;BMP280;50159;49.426;11.182;2024-01-10T05:23:59;98501.75;;;-5.40
17716;BMP280;50159;49.426;11.182;2024-01-10T05:26:26;98493.34;;;-5.44
17716;BMP280;50159;49.426;11.182;2024-01-10T05:28:53;98496.75;;;-5.48
17716;BMP280;50159;49.426;11.182;2024-01-10T05:31:20;98494.22;;;-5.48
17716;BMP280;50159;49.426;11.182;2024-01-10T05:33:47;98500.97;;;-5.47
17716;BMP280;50159;49.426;11.182;2024-01-10T05:36:14;98499.28;;;-5.46
17716;BMP280;50159;49.426;11.182;2024-01-10T05:38:41;98499.28;;;-5.48
17716;BMP280;50159;49.426;11.182;2024-01-10T05:41:08;98505.19;;;-5.49
17716;BMP280;50159;49.426;11.182;2024-01-10T05:43:35;98482.38;;;-5.47
17716;BMP280;50159;49.426;11.182;2024-01-10T05:46:02;98495.88;;;-5.44
17716;BMP280;50159;49.426;11.182;2024-01-10T05:48:31;98493.31;;;-5.41
17716;BMP280;50159;49.426;11.182;2024-01-10T05:50:59;98498.38;;;-5.41
17716;BMP280;50159;49.426;11.182;2024-01-10T05:53:25;98498.38;;;-5.41
17716;BMP280;50159;49.426;11.182;2024-01-10T05:55:52;98498.41;;;-5.44
17716;BMP280;50159;49.426;11.182;2024-01-10T05:58:19;98498.41;;;-5.44
17716;BMP280;50159;49.426;11.182;2024-01-10T06:00:47;98496.75;;;-5.48
17716;BMP280;50159;49.426;11.182;2024-01-10T06:03:14;98504.34;;;-5.52
17716;BMP280;50159;49.426;11.182;2024-01-10T06:05:41;98500.97;;;-5.56
17716;BMP280;50159;49.426;11.182;2024-01-10T06:08:07;98500.19;;;-5.60
17716;BMP280;50159;49.426;11.182;2024-01-10T06:10:34;98499.34;;;-5.67
17716;BMP280;50159;49.426;11.182;2024-01-10T06:13:04;98501.09;;;-5.72
17716;BMP280;50159;49.426;11.182;2024-01-10T06:15:31;98507.84;;;-5.75
17716;BMP280;50159;49.426;11.182;2024-01-10T06:17:57;98506.16;;;-5.82
17716;BMP280;50159;49.426;11.182;2024-01-10T06:20:25;98507.00;;;-5.89
17716;BMP280;50159;49.426;11.182;2024-01-10T06:22:52;98506.16;;;-5.89
17716;BMP280;50159;49.426;11.182;2024-01-10T06:25:19;98517.16;;;-5.89
17716;BMP280;50159;49.426;11.182;2024-01-10T06:27:46;98516.31;;;-5.92
17716;BMP280;50159;49.426;11.182;2024-01-10T06:30:13;98512.97;;;-5.97
17716;BMP280;50159;49.426;11.182;2024-01-10T06:32:40;98517.19;;;-6.03
17716;BMP280;50159;49.426;11.182;2024-01-10T06:35:07;98522.25;;;-6.05
17716;BMP280;50159;49.426;11.182;2024-01-10T06:37:38;98528.16;;;-6.04
17716;BMP280;50159;49.426;11.182;2024-01-10T06:40:05;98528.16;;;-6.03
17716;BMP280;50159;49.426;11.182;2024-01-10T06:42:33;98534.06;;;-6.03
17716;BMP280;50159;49.426;11.182;2024-01-10T06:45:00;98533.22;;;-6.04
17716;BMP280;50159;49.426;11.182;2024-01-10T06:47:26;98539.97;;;-6.05
17716;BMP280;50159;49.426;11.182;2024-01-10T06:49:54;98535.75;;;-6.04
17716;BMP280;50159;49.426;11.182;2024-01-10T06:52:20;98542.50;;;-6.03
17716;BMP280;50159;49.426;11.182;2024-01-10T06:54:47;98538.28;;;-6.06
17716;BMP280;50159;49.426;11.182;2024-01-10T06:57:14;98536.59;;;-6.07
17716;BMP280;50159;49.426;11.182;2024-01-10T06:59:41;98545.88;;;-6.06
17716;BMP280;50159;49.426;11.182;2024-01-10T07:02:08;98542.50;;;-6.06
17716;BMP280;50159;49.426;11.182;2024-01-10T07:04:37;98537.44;;;-6.06
17716;BMP280;50159;49.426;11.182;2024-01-10T07:07:04;98539.13;;;-6.03
17716;BMP280;50159;49.426;11.182;2024-01-10T07:09:32;98548.44;;;-6.00
17716;BMP280;50159;49.426;11.182;2024-01-10T07:11:59;98542.50;;;-5.99
17716;BMP280;50159;49.426;11.182;2024-01-10T07:14:26;98549.25;;;-6.01
17716;BMP280;50159;49.426;11.182;2024-01-10T07:16:53;98551.78;;;-6.01
17716;BMP280;50159;49.426;11.182;2024-01-10T07:19:23;98550.09;;;-6.02
17716;BMP280;50159;49.426;11.182;2024-01-10T07:21:50;98556.00;;;-6.03
17716;BMP280;50159;49.426;11.182;2024-01-10T07:24:17;98567.00;;;-6.00
17716;BMP280;50159;49.426;11.182;2024-01-10T07:26:44;98559.38;;;-5.94
17716;BMP280;50159;49.426;11.182;2024-01-10T07:29:11;98566.13;;;-5.90
17716;BMP280;50159;49.426;11.182;2024-01-10T07:31:38;98561.03;;;-5.90
17716;BMP280;50159;49.426;11.182;2024-01-10T07:34:05;98567.78;;;-5.89
17716;BMP280;50159;49.426;11.182;2024-01-10T07:36:33;98568.66;;;-5.88
17716;BMP280;50159;49.426;11.182;2024-01-10T07:39:00;98567.81;;;-5.87
17716;BMP280;50159;49.426;11.182;2024-01-10T07:41:30;98567.81;;;-5.83
17716;BMP280;50159;49.426;11.182;2024-01-10T07:43:57;98573.63;;;-5.66
17716;BMP280;50159;49.426;11.182;2024-01-10T07:46:24;98566.66;;;-5.03
17716;BMP280;50159;49.426;11.182;2024-01-10T07:48:53;98583.69;;;-3.87
17716;BMP280;50159;49.426;11.182;2024-01-10T07:51:20;98561.06;;;-2.64
17716;BMP280;50159;49.426;11.182;2024-01-10T07:53:48;98571.16;;;-1.53
17716;BMP280;50159;49.426;11.182;2024-01-10T07:56:15;98570.19;;;-0.62
17716;BMP280;50159;49.426;11.182;2024-01-10T07:58:42;98573.38;;;0.21
17716;BMP280;50159;49.426;11.182;2024-01-10T08:01:09;98576.34;;;1.01
17716;BMP280;50159;49.426;11.182;2024-01-10T08:03:37;98571.56;;;1.75
17716;BMP280;50159;49.426;11.182;2024-01-10T08:06:04;98574.59;;;2.41
17716;BMP280;50159;49.426;11.182;2024-01-10T08:08:40;98580.22;;;2.99
17716;BMP280;50159;49.426;11.182;2024-01-10T08:11:07;98578.38;;;3.49
17716;BMP280;50159;49.426;11.182;2024-01-10T08:13:34;98573.97;;;3.96
17716;BMP280;50159;49.426;11.182;2024-01-10T08:16:01;98578.81;;;4.46
17716;BMP280;50159;49.426;11.182;2024-01-10T08:18:30;98568.88;;;4.97
17716;BMP280;50159;49.426;11.182;2024-01-10T08:20:57;98575.41;;;5.43
17716;BMP280;50159;49.426;11.182;2024-01-10T08:23:24;98576.00;;;5.85
17716;BMP280;50159;49.426;11.182;2024-01-10T08:25:51;98583.09;;;6.35
17716;BMP280;50159;49.426;11.182;2024-01-10T08:28:17;98574.31;;;6.72
17716;BMP280;50159;49.426;11.182;2024-01-10T08:30:44;98563.38;;;7.00
17716;BMP280;50159;49.426;11.182;2024-01-10T08:33:12;98578.38;;;7.42
17716;BMP280;50159;49.426;11.182;2024-01-10T08:35:39;98571.88;;;7.82
17716;BMP280;50159;49.426;11.182;2024-01-10T08:38:06;98574.09;;;8.20
17716;BMP280;50159;49.426;11.182;2024-01-10T08:40:34;98582.75;;;8.49
17716;BMP280;50159;49.426;11.182;2024-01-10T08:43:02;98576.47;;;8.69
17716;BMP280;50159;49.426;11.182;2024-01-10T08:45:29;98578.81;;;9.02
17716;BMP280;50159;49.426;11.182;2024-01-10T08:47:56;98577.75;;;9.33
17716;BMP280;50159;49.426;11.182;2024-01-10T08:50:24;98576.94;;;9.46
17716;BMP280;50159;49.426;11.182;2024-01-10T08:52:51;98572.69;;;9.59
17716;BMP280;50159;49.426;11.182;2024-01-10T08:55:18;98581.88;;;9.78
17716;BMP280;50159;49.426;11.182;2024-01-10T08:57:46;98580.22;;;9.91
17716;BMP280;50159;49.426;11.182;2024-01-10T09:00:16;98575.81;;;9.37
17716;BMP280;50159;49.426;11.182;2024-01-10T09:02:43;98577.97;;;7.82
17716;BMP280;50159;49.426;11.182;2024-01-10T09:05:10;98580.56;;;5.81
17716;BMP280;50159;49.426;11.182;2024-01-10T09:07:38;98580.25;;;3.89
17716;BMP280;50159;49.426;11.182;2024-01-10T09:10:06;98589.59;;;2.52
17716;BMP280;50159;49.426;11.182;2024-01-10T09:12:34;98587.88;;;1.45
17716;BMP280;50159;49.426;11.182;2024-01-10T09:15:01;98594.44;;;0.64
17716;BMP280;50159;49.426;11.182;2024-01-10T09:17:29;98595.72;;;0.14
17716;BMP280;50159;49.426;11.182;2024-01-10T09:19:56;98599.13;;;-0.22
17716;BMP280;50159;49.426;11.182;2024-01-10T09:22:24;98598.88;;;-0.49
17716;BMP280;50159;49.426;11.182;2024-01-10T09:24:50;98605.16;;;-0.65
17716;BMP280;50159;49.426;11.182;2024-01-10T09:27:18;98602.94;;;-0.81
17716;BMP280;50159;49.426;11.182;2024-01-10T09:29:44;98598.91;;;-0.92
17716;BMP280;50159;49.426;11.182;2024-01-10T09:32:11;98601.63;;;-1.00
17716;BMP280;50159;49.426;11.182;2024-01-10T09:34:38;98603.38;;;-1.03
17716;BMP280;50159;49.426;11.182;2024-01-10T09:37:07;98597.56;;;-1.10
17716;BMP280;50159;49.426;11.182;2024-01-10T09:39:34;98600.94;;;-1.08
17716;BMP280;50159;49.426;11.182;2024-01-10T09:42:01;98607.75;;;-1.08
17716;BMP280;50159;49.426;11.182;2024-01-10T09:44:29;98618.00;;;-1.10
17716;BMP280;50159;49.426;11.182;2024-01-10T09:46:56;98620.53;;;-1.10
17716;BMP280;50159;49.426;11.182;2024-01-10T09:49:23;98621.34;;;-1.08
17716;BMP280;50159;49.426;11.182;2024-01-10T09:51:58;98617.00;;;-1.03
17716;BMP280;50159;49.426;11.182;2024-01-10T09:54:29;98625.41;;;-0.98
17716;BMP280;50159;49.426;11.182;2024-01-10T09:56:59;98614.28;;;-0.94
17716;BMP280;50159;49.426;11.182;2024-01-10T09:59:27;98614.00;;;-0.81
17716;BMP280;50159;49.426;11.182;2024-01-10T10:01:56;98611.38;;;-0.78
17716;BMP280;50159;49.426;11.182;2024-01-10T10:04:27;98603.97;;;-0.90
17716;BMP280;50159;49.426;11.182;2024-01-10T10:07:01;98613.22;;;-0.84
17716;BMP280;50159;49.426;11.182;2024-01-10T10:09:30;98610.69;;;-0.84
17716;BMP280;50159;49.426;11.182;2024-01-10T10:11:57;98607.22;;;-0.82
17716;BMP280;50159;49.426;11.182;2024-01-10T10:14:28;98606.38;;;-0.82
17716;BMP280;50159;49.426;11.182;2024-01-10T10:16:55;98599.53;;;-0.80
17716;BMP280;50159;49.426;11.182;2024-01-10T10:19:24;98607.91;;;-0.75
17716;BMP280;50159;49.426;11.182;2024-01-10T10:22:10;98600.25;;;-0.75
17716;BMP280;50159;49.426;11.182;2024-01-10T10:24:38;98612.00;;;-0.67
17716;BMP280;50159;49.426;11.182;2024-01-10T10:27:09;98602.56;;;-0.64
17716;BMP280;50159;49.426;11.182;2024-01-10T10:29:37;98615.19;;;-0.56
17716;BMP280;50159;49.426;11.182;2024-01-10T10:32:05;98613.44;;;-0.54
17716;BMP280;50159;49.426;11.182;2024-01-10T10:34:33;98616.69;;;-0.46
17716;BMP280;50159;49.426;11.182;2024-01-10T10:37:01;98602.22;;;-0.46
17716;BMP280;50159;49.426;11.182;2024-01-10T10:39:28;98600.38;;;-0.41
17716;BMP280;50159;49.426;11.182;2024-01-10T10:41:56;98607.97;;;-0.37
17716;BMP280;50159;49.426;11.182;2024-01-10T10:44:24;98600.19;;;-0.32
17716;BMP280;50159;49.426;11.182;2024-01-10T10:46:59;98601.72;;;-0.25
17716;BMP280;50159;49.426;11.182;2024-01-10T10:49:51;98608.47;;;-0.22
17716;BMP280;50159;49.426;11.182;2024-01-10T10:52:23;98608.31;;;-0.16
17716;BMP280;50159;49.426;11.182;2024-01-10T10:54:51;98604.84;;;-0.12
17716;BMP280;50159;49.426;11.182;2024-01-10T10:57:27;98604.69;;;-0.06
17716;BMP280;50159;49.426;11.182;2024-01-10T10:59:57;98605.38;;;0.02
17716;BMP280;50159;49.426;11.182;2024-01-10T11:02:24;98598.44;;;0.07
17716;BMP280;50159;49.426;11.182;2024-01-10T11:04:58;98602.53;;;0.14
17716;BMP280;50159;49.426;11.182;2024-01-10T11:07:27;98605.91;;;0.16
17716;BMP280;50159;49.426;11.182;2024-01-10T11:09:55;98611.78;;;0.19
17716;BMP280;50159;49.426;11.182;2024-01-10T11:12:39;98604.03;;;0.22
17716;BMP280;50159;49.426;11.182;2024-01-10T11:15:55;98602.16;;;0.28
17716;BMP280;50159;49.426;11.182;2024-01-10T11:21:18;98604.34;;;0.43
17716;BMP280;50159;49.426;11.182;2024-01-10T11:23:54;98599.94;;;0.48
17716;BMP280;50159;49.426;11.182;2024-01-10T11:26:21;98609.13;;;0.56
17716;BMP280;50159;49.426;11.182;2024-01-10T11:28:50;98601.19;;;0.67
17716;BMP280;50159;49.426;11.182;2024-01-10T11:31:28;98589.94;;;0.72
17716;BMP280;50159;49.426;11.182;2024-01-10T11:34:01;98590.63;;;0.78
17716;BMP280;50159;49.426;11.182;2024-01-10T11:36:29;98581.84;;;0.88
17716;BMP280;50159;49.426;11.182;2024-01-10T11:39:03;98580.53;;;1.04
17716;BMP280;50159;49.426;11.182;2024-01-10T11:41:36;98579.22;;;1.19
17716;BMP280;50159;49.426;11.182;2024-01-10T11:46:47;98575.59;;;1.83
17716;BMP280;50159;49.426;11.182;2024-01-10T11:49:18;98575.31;;;2.19
17716;BMP280;50159;49.426;11.182;2024-01-10T11:51:52;98567.38;;;2.51
17716;BMP280;50159;49.426;11.182;2024-01-10T11:54:40;98572.91;;;2.89
17716;BMP280;50159;49.426;11.182;2024-01-10T11:57:12;98563.09;;;3.22
17716;BMP280;50159;49.426;11.182;2024-01-10T11:59:42;98564.97;;;3.64
17716;BMP280;50159;49.426;11.182;2024-01-10T12:02:12;98571.72;;;3.89
17716;BMP280;50159;49.426;11.182;2024-01-10T12:04:40;98558.97;;;4.07
17716;BMP280;50159;49.426;11.182;2024-01-10T12:07:16;98559.41;;;4.37
17716;BMP280;50159;49.426;11.182;2024-01-10T12:09:45;98562.09;;;4.55
17716;BMP280;50159;49.426;11.182;2024-01-10T12:12:15;98554.44;;;4.73
17716;BMP280;50159;49.426;11.182;2024-01-10T12:14:42;98563.22;;;4.89
17716;BMP280;50159;49.426;11.182;2024-01-10T12:17:13;98545.91;;;5.11
17716;BMP280;50159;49.426;11.182;2024-01-10T12:19:40;98554.69;;;5.26
17716;BMP280;50159;49.426;11.182;2024-01-10T12:22:11;98544.00;;;5.34
17716;BMP280;50159;49.426;11.182;2024-01-10T12:24:48;98548.00;;;5.40
17716;BMP280;50159;49.426;11.182;2024-01-10T12:27:17;98555.50;;;5.64
17716;BMP280;50159;49.426;11.182;2024-01-10T12:29:50;98543.47;;;6.00
17716;BMP280;50159;49.426;11.182;2024-01-10T12:32:21;98540.06;;;6.34
17716;BMP280;50159;49.426;11.182;2024-01-10T12:35:02;98541.94;;;6.65
17716;BMP280;50159;49.426;11.182;2024-01-10T12:37:31;98535.91;;;6.98
17716;BMP280;50159;49.426;11.182;2024-01-10T12:39:58;98540.38;;;7.28
17716;BMP280;50159;49.426;11.182;2024-01-10T12:42:26;98544.38;;;7.65
17716;BMP280;50159;49.426;11.182;2024-01-10T12:44:53;98538.28;;;7.96
17716;BMP280;50159;49.426;11.182;2024-01-10T12:47:21;98533.78;;;8.45
17716;BMP280;50159;49.426;11.182;2024-01-10T12:49:50;98529.41;;;8.90
17716;BMP280;50159;49.426;11.182;2024-01-10T12:52:17;98533.81;;;9.58
17716;BMP280;50159;49.426;11.182;2024-01-10T12:54:48;98542.16;;;10.04
17716;BMP280;50159;49.426;11.182;2024-01-10T12:57:15;98530.25;;;10.65
17716;BMP280;50159;49.426;11.182;2024-01-10T12:59:42;98534.81;;;11.24
17716;BMP280;50159;49.426;11.182;2024-01-10T13:02:09;98522.25;;;11.80
17716;BMP280;50159;49.426;11.182;2024-01-10T13:04:35;98532.81;;;12.36
17716;BMP280;50159;49.426;11.182;2024-01-10T13:07:03;98526.97;;;12.68
17716;BMP280;50159;49.426;11.182;2024-01-10T13:09:29;98520.38;;;13.20
17716;BMP280;50159;49.426;11.182;2024-01-10T13:11:56;98525.78;;;13.72
17716;BMP280;50159;49.426;11.182;2024-01-10T13:14:23;98515.25;;;14.06
17716;BMP280;50159;49.426;11.182;2024-01-10T13:16:50;98514.16;;;14.60
17716;BMP280;50159;49.426;11.182;2024-01-10T13:19:25;98515.56;;;14.64
17716;BMP280;50159;49.426;11.182;2024-01-10T13:21:53;98522.34;;;14.25
17716;BMP280;50159;49.426;11.182;2024-01-10T13:24:20;98521.78;;;14.00
17716;BMP280;50159;49.426;11.182;2024-01-10T13:26:47;98519.28;;;13.99
17716;BMP280;50159;49.426;11.182;2024-01-10T13:29:15;98512.06;;;13.91
17716;BMP280;50159;49.426;11.182;2024-01-10T13:31:42;98508.94;;;14.08
17716;BMP280;50159;49.426;11.182;2024-01-10T13:34:09;98518.75;;;14.37
17716;BMP280;50159;49.426;11.182;2024-01-10T13:36:37;98516.41;;;13.80
17716;BMP280;50159;49.426;11.182;2024-01-10T13:39:04;98516.63;;;13.00
17716;BMP280;50159;49.426;11.182;2024-01-10T13:41:31;98514.59;;;11.77
17716;BMP280;50159;49.426;11.182;2024-01-10T13:43:58;98513.38;;;10.07
17716;BMP280;50159;49.426;11.182;2024-01-10T13:46:25;98510.78;;;9.24
17716;BMP280;50159;49.426;11.182;2024-01-10T13:48:52;98523.16;;;8.78
17716;BMP280;50159;49.426;11.182;2024-01-10T13:51:19;98519.59;;;8.06
17716;BMP280;50159;49.426;11.182;2024-01-10T13:53:46;98513.38;;;7.63
17716;BMP280;50159;49.426;11.182;2024-01-10T13:56:12;98529.13;;;7.91
17716;BMP280;50159;49.426;11.182;2024-01-10T13:58:39;98518.09;;;8.62
17716;BMP280;50159;49.426;11.182;2024-01-10T14:01:06;98506.16;;;9.02
17716;BMP280;50159;49.426;11.182;2024-01-10T14:03:33;98510.16;;;9.62
17716;BMP280;50159;49.426;11.182;2024-01-10T14:06:00;98515.81;;;9.55
17716;BMP280;50159;49.426;11.182;2024-01-10T14:08:27;98511.69;;;10.06
17716;BMP280;50159;49.426;11.182;2024-01-10T14:10:54;98507.78;;;10.64